Latest Weather Observations for Busselton Airport

IDW60801

Issued at 8:33 pm WST Thursday 30 March 2017 (issued every 30 minutes, with the page automatically refreshed every 10 minutes)

About weather observations | Map of weather stations | Latest weather observations for WA | Other Formats
Station Details ID: 009603 Name: BUSSELTON AERO Lat: -33.69 Lon: 115.40 Height: 16.3 m
Data from the previous 72 hours. | See also: Recent months at Busselton Airport
Date/Time
WST
Temp
°C
App
Temp
°C
Dew
Point
°C
Rel
Hum
%
Delta-T
°C
Wind Press
QNH
hPa
Press
MSL
hPa
Rain since
9am
mm
Dir  Spd
km/h
Gust
km/h
Spd
kts
Gust
kts
30/08:30pm 15.8 11.8 9.0 64 3.5 S 20 26 11 14 1024.0 1023.9 0.0
30/08:00pm 16.2 12.4 9.2 63 3.6 S 19 26 10 14 1023.9 1023.8 0.0
30/07:30pm 16.7 13.0 9.4 62 3.8 S 19 24 10 13 1023.6 1023.5 0.0
30/07:00pm 17.8 14.3 8.9 56 4.6 S 17 20 9 11 1023.1 1023.1 0.0
30/06:30pm 19.0 15.3 7.8 48 5.7 SSW 17 24 9 13 1022.9 1022.9 0.0
30/06:00pm 20.4 16.1 7.7 44 6.5 S 20 28 11 15 1022.4 1022.4 0.0
30/05:30pm 21.9 17.0 8.4 42 7.1 S 24 32 13 17 1022.2 1022.2 0.0
30/05:00pm 23.3 19.4 9.3 41 7.5 SW 20 28 11 15 1022.0 1022.0 0.0
30/04:30pm 23.6 20.9 8.8 39 7.9 WNW 13 17 7 9 1021.8 1021.8 0.0
30/04:00pm 23.4 20.0 9.0 40 7.7 NNW 17 19 9 10 1021.7 1021.7 0.0
30/03:30pm 23.5 19.4 8.0 37 8.2 NW 19 22 10 12 1021.7 1021.7 0.0
30/03:00pm 23.8 19.4 7.4 35 8.5 NW 20 24 11 13 1021.7 1021.7 0.0
30/02:30pm 24.6 21.1 7.3 33 9.1 NW 15 24 8 13 1021.8 1021.8 0.0
30/02:00pm 24.4 20.5 7.1 33 9.0 NW 17 22 9 12 1022.0 1022.0 0.0
30/01:30pm 24.3 21.3 7.9 35 8.7 SW 13 20 7 11 1022.2 1022.2 0.0
30/01:00pm 23.7 21.3 6.9 34 8.7 WSW 9 20 5 11 1022.6 1022.6 0.0
30/12:30pm 24.1 22.2 6.8 33 9.0 E 6 9 3 5 1022.9 1022.9 0.0
30/12:00pm 22.3 19.7 6.1 35 8.2 SW 9 11 5 6 1023.2 1023.2 0.0
30/11:30am 22.3 20.6 7.7 39 7.6 ESE 6 11 3 6 1023.6 1023.5 0.0
30/11:00am 21.1 19.6 7.0 40 7.2 ESE 4 13 2 7 1023.9 1023.8 0.0
30/10:30am 19.7 17.6 6.8 43 6.5 SE 7 13 4 7 1024.3 1024.2 0.0
30/10:00am 18.5 15.2 6.4 45 6.0 E 13 17 7 9 1024.6 1024.5 0.0
30/09:30am 17.2 13.9 6.4 49 5.3 E 13 19 7 10 1025.0 1024.9 0.0
30/09:00am 15.8 11.7 6.3 53 4.6 E 17 22 9 12 1025.3 1025.2 0.0
30/08:30am 14.1 10.9 6.9 62 3.5 ESE 13 19 7 10 1025.2 1025.1 0.0
30/08:00am 12.8 9.6 6.8 67 2.9 ESE 13 17 7 9 1025.2 1025.1 0.0
30/07:30am 11.3 8.9 7.0 75 2.1 ESE 9 13 5 7 1025.4 1025.3 0.0
30/07:00am 8.3 5.4 4.9 79 1.5 SE 9 9 5 5 1025.3 1025.2 0.0
30/06:30am 7.8 5.2 4.4 79 1.5 SE 7 9 4 5 1025.3 1025.2 0.0
30/06:00am 8.8 6.0 5.2 78 1.6 S 9 9 5 5 1025.4 1025.3 0.0
30/05:30am 9.3 6.9 5.3 76 1.8 SSE 7 7 4 4 1025.2 1025.1 0.0
30/05:00am 9.5 7.2 4.9 73 2.0 ESE 6 7 3 4 1025.1 1025.0 0.0
30/04:30am 9.4 6.9 4.8 73 2.1 SE 7 7 4 4 1025.0 1024.9 0.0
30/04:00am 9.5 7.0 4.5 71 2.2 ESE 7 9 4 5 1025.0 1024.9 0.0
30/03:30am 9.7 6.8 4.7 71 2.2 ESE 9 11 5 6 1024.9 1024.8 0.0
30/03:00am 9.8 6.9 4.6 70 2.3 ESE 9 11 5 6 1024.9 1024.8 0.0
30/02:30am 10.1 7.2 4.7 69 2.4 ESE 9 13 5 7 1025.1 1025.0 0.0
30/02:00am 10.5 6.9 4.9 68 2.5 E 13 17 7 9 1025.3 1025.2 0.0
30/01:30am 10.8 6.8 4.9 67 2.7 E 15 19 8 10 1025.1 1025.0 0.0
30/01:00am 11.0 7.0 4.7 65 2.8 E 15 19 8 10 1025.2 1025.1 0.0
30/12:30am 11.6 7.2 4.8 63 3.1 ESE 17 19 9 10 1025.2 1025.1 0.0
30/12:00am 11.8 7.5 5.2 64 3.0 ESE 17 19 9 10 1025.2 1025.1 0.0
 
Date/Time
WST
Temp
°C
App
Temp
°C
Dew
Point
°C
Rel
Hum
%
Delta-T
°C
Wind Press
QNH
hPa
Press
MSL
hPa
Rain since
9am
mm
Dir  Spd
km/h
Gust
km/h
Spd
kts
Gust
kts
29/11:30pm 11.9 7.7 5.5 65 3.0 ESE 17 19 9 10 1025.5 1025.4 0.0
29/11:00pm 11.2 7.7 5.3 67 2.7 SE 13 15 7 8 1025.5 1025.4 0.0
29/10:30pm 11.8 8.4 5.7 66 2.8 SE 13 15 7 8 1025.5 1025.4 0.0
29/10:00pm 13.0 10.0 6.1 63 3.2 SSE 11 15 6 8 1025.6 1025.5 0.0
29/09:30pm 13.4 10.4 6.0 61 3.5 SSE 11 13 6 7 1025.4 1025.3 0.0
29/09:00pm 13.5 10.1 6.1 61 3.5 SSE 13 15 7 8 1025.4 1025.3 0.0
29/08:30pm 14.3 11.0 6.4 59 3.8 SSE 13 17 7 9 1025.4 1025.3 0.0
29/08:00pm 14.6 10.9 6.4 58 3.9 SSE 15 17 8 9 1025.1 1025.0 0.0
29/07:30pm 14.4 11.0 6.0 57 4.0 SSE 13 15 7 8 1024.8 1024.7 0.0
29/07:00pm 15.6 12.2 6.1 53 4.6 SSE 13 15 7 8 1024.6 1024.5 0.0
29/06:30pm 17.1 14.0 5.7 47 5.5 SSE 11 13 6 7 1024.4 1024.3 0.0
29/06:00pm 19.3 15.4 5.4 40 6.8 SE 15 19 8 10 1024.2 1024.1 0.0
29/05:30pm 20.7 16.3 4.7 35 7.8 SE 17 20 9 11 1024.0 1023.9 0.0
29/05:00pm 21.4 16.2 5.3 35 7.9 SE 22 32 12 17 1023.8 1023.7 0.0
29/04:30pm 21.4 16.1 4.9 34 8.1 SE 22 28 12 15 1023.8 1023.7 0.0
29/04:00pm 21.8 16.8 4.8 33 8.3 SE 20 28 11 15 1024.1 1024.0 0.0
29/03:30pm 21.6 16.7 5.1 34 8.2 ESE 20 32 11 17 1024.1 1024.0 0.0
29/03:00pm 21.6 16.8 5.5 35 8.0 SE 20 28 11 15 1024.2 1024.1 0.0
29/02:30pm 21.2 16.3 5.1 35 7.9 SE 20 32 11 17 1024.4 1024.3 0.0
29/02:00pm 20.6 15.2 4.6 35 7.7 SE 22 33 12 18 1024.8 1024.7 0.0
29/01:30pm 20.8 16.3 6.0 38 7.4 SE 19 30 10 16 1025.2 1025.1 0.0
29/01:00pm 20.0 14.8 5.3 38 7.2 ESE 22 32 12 17 1025.5 1025.4 0.0
29/12:30pm 19.5 14.4 5.9 41 6.7 ESE 22 35 12 19 1025.9 1025.8 0.0
29/12:00pm 19.3 13.8 6.1 42 6.5 ESE 24 37 13 20 1026.3 1026.2 0.0
29/11:30am 18.8 12.9 6.0 43 6.3 ESE 26 35 14 19 1026.6 1026.5 0.0
29/11:00am 17.7 12.1 5.3 44 5.9 ESE 24 35 13 19 1026.8 1026.7 0.0
29/10:30am 17.3 11.9 6.5 49 5.3 SE 24 30 13 16 1027.2 1027.1 0.0
29/10:00am 16.9 10.2 5.5 47 5.5 SE 30 41 16 22 1027.5 1027.4 0.0
29/09:30am 16.5 11.0 5.8 49 5.2 SE 24 32 13 17 1027.4 1027.3 0.0
29/09:00am 15.2 10.5 6.2 55 4.3 SSE 20 26 11 14 1027.4 1027.3 0.0
29/08:30am 13.5 9.8 6.4 62 3.4 SSE 15 24 8 13 1027.4 1027.3 0.0
29/08:00am 11.6 8.7 8.1 79 1.7 S 13 17 7 9 1027.3 1027.2 0.0
29/07:30am 9.3 6.6 7.4 88 0.9 S 11 13 6 7 1026.8 1026.7 0.0
29/07:00am 8.2 5.7 6.5 89 0.8 S 9 11 5 6 1026.5 1026.4 0.0
29/06:30am 7.2 4.7 5.0 86 1.0 SE 7 9 4 5 1026.3 1026.2 0.0
29/06:00am 7.4 4.9 4.9 84 1.1 SE 7 9 4 5 1026.1 1026.0 0.0
29/05:30am 8.6 6.3 5.9 83 1.2 SE 7 9 4 5 1025.8 1025.7 0.0
29/05:00am 9.4 6.9 6.7 83 1.3 SE 9 11 5 6 1025.4 1025.3 0.0
29/04:30am 9.3 6.8 6.4 82 1.3 SE 9 11 5 6 1025.0 1024.9 0.0
29/04:00am 9.8 7.0 6.9 82 1.4 SE 11 13 6 7 1024.7 1024.6 0.0
29/03:30am 10.4 8.1 7.5 82 1.4 SSE 9 11 5 6 1024.3 1024.2 0.0
29/03:00am 11.2 9.1 8.1 81 1.5 S 9 11 5 6 1024.2 1024.1 0.0
29/02:30am 10.7 8.8 7.6 81 1.5 SSE 7 9 4 5 1024.1 1024.0 0.0
29/02:00am 11.3 9.2 8.2 81 1.5 SSE 9 17 5 9 1023.8 1023.7 0.0
29/01:30am 10.6 7.9 7.3 80 1.6 SSE 11 11 6 6 1023.7 1023.6 0.0
29/01:00am 11.2 8.9 7.3 77 1.9 SSE 9 13 5 7 1023.5 1023.4 0.0
29/12:30am 12.4 9.8 7.9 74 2.2 SSE 11 15 6 8 1023.3 1023.3 0.0
29/12:00am 12.6 9.2 7.7 72 2.4 SSE 15 19 8 10 1023.1 1023.1 0.0
 
Date/Time
WST
Temp
°C
App
Temp
°C
Dew
Point
°C
Rel
Hum
%
Delta-T
°C
Wind Press
QNH
hPa
Press
MSL
hPa
Rain since
9am
mm
Dir  Spd
km/h
Gust
km/h
Spd
kts
Gust
kts
28/11:30pm 12.8 9.4 7.7 71 2.5 SSE 15 22 8 12 1022.7 1022.7 0.0
28/11:00pm 13.2 9.6 8.5 73 2.3 SSE 17 24 9 13 1022.5 1022.5 0.0
28/10:30pm 14.2 10.5 9.6 74 2.4 SSE 19 24 10 13 1022.5 1022.5 0.0
28/10:00pm 14.4 11.0 10.6 78 2.0 SSE 19 24 10 13 1022.4 1022.4 0.0
28/09:30pm 14.1 12.3 12.0 87 1.1 SSE 13 20 7 11 1022.2 1022.2 0.0
28/09:00pm 14.3 13.2 11.8 85 1.3 S 9 13 5 7 1022.0 1022.0 0.0
28/08:30pm 15.2 12.7 12.3 83 1.6 S 17 20 9 11 1021.7 1021.7 0.0
28/08:00pm 15.6 12.8 13.1 85 1.4 S 20 26 11 14 1021.4 1021.4 0.0
28/07:30pm 15.8 12.7 13.5 86 1.3 S 22 28 12 15 1020.7 1020.7 0.0
28/07:00pm 15.8 13.6 14.3 91 0.9 S 19 24 10 13 1020.2 1020.2 0.0
28/06:30pm 16.3 13.3 13.8 85 1.4 SSW 22 32 12 17 1019.7 1019.7 0.0
28/06:00pm 17.6 12.7 12.5 72 2.8 SSW 30 37 16 20 1019.5 1019.5 0.0
28/05:30pm 18.6 15.7 12.4 67 3.5 SSW 19 24 10 13 1018.9 1018.9 0.0
28/05:00pm 19.0 14.3 12.0 64 3.9 SSW 28 39 15 21 1018.8 1018.8 0.0
28/04:30pm 20.3 16.5 11.0 55 5.1 SSW 22 32 12 17 1018.4 1018.4 0.0
28/04:00pm 20.7 15.1 10.2 51 5.7 SSW 30 41 16 22 1018.4 1018.4 0.0
28/03:30pm 21.1 16.5 11.2 53 5.5 SW 26 37 14 20 1018.3 1018.3 0.0
28/03:00pm 21.0 15.3 11.3 54 5.4 SSW 32 39 17 21 1018.3 1018.3 0.0
28/02:30pm 21.8 17.7 11.5 52 5.7 WSW 24 35 13 19 1017.8 1017.8 0.0
28/02:00pm 22.0 18.4 10.5 48 6.3 SW 20 33 11 18 1017.9 1017.9 0.0
28/01:30pm 21.7 18.2 10.8 50 6.0 SW 20 28 11 15 1018.1 1018.1 0.0
28/01:00pm 21.5 17.9 10.6 50 6.0 WSW 20 30 11 16 1018.1 1018.1 0.0
28/12:30pm 21.4 18.1 10.9 51 5.8 WSW 19 28 10 15 1018.2 1018.2 0.0
28/12:00pm 21.3 18.1 11.3 53 5.5 SSW 19 28 10 15 1018.7 1018.7 0.0
28/11:30am 20.8 16.7 11.4 55 5.2 SSW 24 32 13 17 1018.9 1018.9 0.0
28/11:00am 20.2 16.2 10.6 54 5.2 SW 22 32 12 17 1019.2 1019.2 0.0
28/10:30am 19.9 16.0 12.2 61 4.3 SSW 24 30 13 16 1019.3 1019.3 0.0
28/10:00am 19.7 16.9 12.5 63 4.0 SW 19 28 10 15 1019.1 1019.1 0.0
28/09:30am 18.5 17.7 15.0 80 2.0 SW 13 26 7 14 1019.3 1019.3 0.0
28/09:00am 17.1 16.7 16.3 95 0.5 SSW 13 17 7 9 1019.0 1019.0 0.2
28/08:30am 16.4 16.8 16.2 99 0.1 W 9 13 5 7 1019.1 1019.1 0.2
28/08:00am 15.8 15.9 15.6 99 0.1 WSW 9 15 5 8 1018.9 1018.9 0.2
28/07:30am 14.9 15.1 14.7 99 0.1 SSE 7 9 4 5 1018.8 1018.8 0.0
28/07:00am 14.4 14.0 14.1 98 0.2 NE 9 11 5 6 1018.5 1018.5 0.0
28/06:30am 14.3 13.8 13.8 97 0.3 ENE 9 9 5 5 1018.5 1018.5 0.0
28/06:00am 14.5 15.7 13.9 96 0.3 CALM 0 7 0 4 1018.6 1018.6 0.0
28/05:30am 14.4 15.5 13.4 94 0.6 CALM 0 0 0 0 1018.8 1018.8 0.0
28/05:00am 14.3 14.2 13.2 93 0.6 N 6 7 3 4 1018.7 1018.7 0.0
28/04:30am 14.9 16.0 13.6 92 0.7 CALM 0 0 0 0 1018.8 1018.8 0.0
28/04:00am 15.2 16.3 13.6 90 0.9 CALM 0 0 0 0 1018.9 1018.9 0.0
28/03:30am 15.2 16.3 13.4 89 1.0 CALM 0 0 0 0 1018.8 1018.8 0.0
28/03:00am 15.6 15.2 13.1 85 1.4 SSW 7 11 4 6 1019.0 1019.0 0.0
28/02:30am 15.6 15.0 12.2 80 1.9 S 7 9 4 5 1018.9 1018.9 0.0
28/02:00am 15.9 16.6 12.1 78 2.1 CALM 0 0 0 0 1018.9 1018.9 0.0
28/01:30am 16.0 16.6 12.0 77 2.2 CALM 0 2 0 1 1019.2 1019.2 0.0
28/01:00am 16.2 16.9 12.2 77 2.2 CALM 0 6 0 3 1019.1 1019.1 0.0
28/12:30am 16.2 16.8 12.0 76 2.3 CALM 0 0 0 0 1019.5 1019.5 0.0
28/12:00am 16.0 15.4 11.6 75 2.4 N 6 7 3 4 1019.5 1019.5 0.0
 
Date/Time
WST
Temp
°C
App
Temp
°C
Dew
Point
°C
Rel
Hum
%
Delta-T
°C
Wind Press
QNH
hPa
Press
MSL
hPa
Rain since
9am
mm
Dir  Spd
km/h
Gust
km/h
Spd
kts
Gust
kts
27/11:30pm 16.4 16.4 11.3 72 2.7 WSW 2 7 1 4 1019.6 1019.6 0.0
27/11:00pm 16.3 16.7 11.2 72 2.7 CALM 0 0 0 0 1019.9 1019.9 0.0
27/10:30pm 16.5 15.7 11.0 70 2.9 SW 6 9 3 5 1020.1 1020.1 0.0
27/10:00pm 16.3 14.9 11.0 71 2.8 SSW 9 11 5 6 1020.0 1020.0 0.0
27/09:30pm 16.0 14.5 10.7 71 2.8 SSW 9 11 5 6 1020.1 1020.1 0.0
27/09:00pm 15.4 14.8 10.4 72 2.6 S 4 6 2 3 1020.0 1020.0 0.0

Other Formats:

Comma delimited format used in spreadsheet applications
http://www.bom.gov.au/fwo/IDW60801/IDW60801.95611.axf

JavaScript Object Notation format (JSON) in row-major order
http://www.bom.gov.au/fwo/IDW60801/IDW60801.95611.json